createdAt,value
2023-11-29T00:01:12.548Z,0.77
2023-11-29T00:03:40.948Z,0.78
2023-11-29T00:06:09.664Z,0.80
2023-11-29T00:08:38.308Z,0.76
2023-11-29T00:11:08.711Z,0.75
2023-11-29T00:13:37.863Z,0.78
2023-11-29T00:16:09.017Z,0.77
2023-11-29T00:18:38.637Z,0.75
2023-11-29T00:21:08.304Z,0.73
2023-11-29T00:23:36.972Z,0.75
2023-11-29T00:26:05.643Z,0.78
2023-11-29T00:28:35.213Z,0.79
2023-11-29T00:31:03.797Z,0.76
2023-11-29T00:33:34.001Z,0.79
2023-11-29T00:36:02.549Z,0.80
2023-11-29T00:38:31.352Z,0.76
2023-11-29T00:40:59.790Z,0.73
2023-11-29T00:43:29.473Z,0.70
2023-11-29T00:45:57.909Z,0.70
2023-11-29T00:48:26.882Z,0.67
2023-11-29T00:51:07.892Z,0.66
2023-11-29T00:53:36.548Z,0.62
2023-11-29T00:56:05.286Z,0.61
2023-11-29T00:58:33.775Z,0.63
2023-11-29T01:01:02.310Z,0.62
2023-11-29T01:03:30.904Z,0.60
2023-11-29T01:05:59.650Z,0.58
2023-11-29T01:08:30.248Z,0.56
2023-11-29T01:10:58.789Z,0.59
2023-11-29T01:13:27.258Z,0.55
2023-11-29T01:15:55.838Z,0.52
2023-11-29T01:18:24.445Z,0.52
2023-11-29T01:20:53.627Z,0.52
2023-11-29T01:23:22.297Z,0.50
2023-11-29T01:25:52.304Z,0.46
2023-11-29T01:28:22.518Z,0.46
2023-11-29T01:30:51.094Z,0.47
2023-11-29T01:33:19.596Z,0.41
2023-11-29T01:35:48.765Z,0.36
2023-11-29T01:38:17.326Z,0.34
2023-11-29T01:40:46.267Z,0.36
2023-11-29T01:43:16.268Z,0.40
2023-11-29T01:45:44.828Z,0.39
2023-11-29T01:48:13.457Z,0.38
2023-11-29T01:50:42.041Z,0.38
2023-11-29T01:53:13.347Z,0.36
2023-11-29T01:55:44.011Z,0.37
2023-11-29T01:58:12.546Z,0.36
2023-11-29T02:00:44.784Z,0.39
2023-11-29T02:03:14.117Z,0.39
2023-11-29T02:05:42.888Z,0.34
2023-11-29T02:08:12.066Z,0.35
2023-11-29T02:10:41.195Z,0.34
2023-11-29T02:13:10.673Z,0.38
2023-11-29T02:15:39.470Z,0.41
2023-11-29T02:18:09.939Z,0.39
2023-11-29T02:20:38.603Z,0.41
2023-11-29T02:23:10.746Z,0.43
2023-11-29T02:25:40.680Z,0.43
2023-11-29T02:28:09.206Z,0.42
2023-11-29T02:30:38.240Z,0.39
2023-11-29T02:33:07.625Z,0.41
2023-11-29T02:35:36.842Z,0.39
2023-11-29T02:38:05.560Z,0.38
2023-11-29T02:40:34.674Z,0.36
2023-11-29T02:43:06.159Z,0.32
2023-11-29T02:45:37.566Z,0.31
2023-11-29T02:48:07.048Z,0.31
2023-11-29T02:50:35.712Z,0.29
2023-11-29T02:53:04.236Z,0.29
2023-11-29T02:55:33.132Z,0.29
2023-11-29T02:58:02.375Z,0.27
2023-11-29T03:00:32.356Z,0.26
2023-11-29T03:03:01.103Z,0.25
2023-11-29T03:05:29.998Z,0.23
2023-11-29T03:07:58.460Z,0.21
2023-11-29T03:10:26.984Z,0.14
2023-11-29T03:12:56.140Z,0.09
2023-11-29T03:15:24.682Z,0.07
2023-11-29T03:17:55.881Z,0.07
2023-11-29T03:20:24.463Z,0.06
2023-11-29T03:22:52.883Z,0.06
2023-11-29T03:25:21.479Z,0.03
2023-11-29T03:27:49.965Z,0.05
2023-11-29T03:30:18.606Z,-0.01
2023-11-29T03:32:47.169Z,-0.07
2023-11-29T03:35:17.248Z,-0.08
2023-11-29T03:37:46.223Z,-0.12
2023-11-29T03:40:14.670Z,-0.13
2023-11-29T03:42:43.238Z,-0.13
2023-11-29T03:45:12.245Z,-0.14
2023-11-29T03:47:40.993Z,-0.12
2023-11-29T03:50:10.441Z,-0.15
2023-11-29T03:52:40.968Z,-0.18
2023-11-29T03:55:13.704Z,-0.18
2023-11-29T03:57:43.485Z,-0.18
2023-11-29T04:00:12.769Z,-0.18
2023-11-29T04:02:42.252Z,-0.15
2023-11-29T04:05:11.216Z,-0.10
2023-11-29T04:07:41.588Z,-0.14
2023-11-29T04:10:11.054Z,-0.19
2023-11-29T04:12:41.145Z,-0.22
2023-11-29T04:15:09.920Z,-0.24
2023-11-29T04:17:38.491Z,-0.31
2023-11-29T04:20:08.037Z,-0.27
2023-11-29T04:22:39.557Z,-0.33
2023-11-29T04:25:09.946Z,-0.42
2023-11-29T04:27:39.138Z,-0.50
2023-11-29T04:30:08.364Z,-0.49
2023-11-29T04:32:37.239Z,-0.55
2023-11-29T04:35:06.055Z,-0.55
2023-11-29T04:37:35.376Z,-0.57
2023-11-29T04:40:05.716Z,-0.65
2023-11-29T04:42:35.677Z,-0.65
2023-11-29T04:45:04.404Z,-0.63
2023-11-29T04:47:32.922Z,-0.61
2023-11-29T04:50:01.463Z,-0.63
2023-11-29T04:52:32.165Z,-0.62
2023-11-29T04:55:00.658Z,-0.67
2023-11-29T04:57:28.981Z,-0.71
2023-11-29T04:59:58.994Z,-0.73
2023-11-29T05:02:28.151Z,-0.79
2023-11-29T05:04:56.636Z,-0.80
2023-11-29T05:07:25.249Z,-0.82
2023-11-29T05:09:54.636Z,-0.81
2023-11-29T05:12:23.211Z,-0.80
2023-11-29T05:14:51.763Z,-0.79
2023-11-29T05:17:21.972Z,-0.81
2023-11-29T05:19:51.755Z,-0.80
2023-11-29T05:22:20.834Z,-0.82
2023-11-29T05:24:49.394Z,-0.87
2023-11-29T05:27:17.916Z,-0.89
2023-11-29T05:29:46.456Z,-0.86
2023-11-29T05:32:15.043Z,-0.83
2023-11-29T05:34:45.006Z,-0.87
2023-11-29T05:37:13.727Z,-0.89
2023-11-29T05:39:42.104Z,-0.91
2023-11-29T05:42:10.831Z,-0.90
2023-11-29T05:44:39.344Z,-0.89
2023-11-29T05:47:08.078Z,-0.86
2023-11-29T05:49:36.504Z,-0.86
2023-11-29T05:52:06.907Z,-0.92
2023-11-29T05:54:35.633Z,-0.95
2023-11-29T05:57:04.801Z,-0.98
2023-11-29T05:59:33.271Z,-0.98
2023-11-29T06:02:01.707Z,-0.95
2023-11-29T06:04:30.276Z,-0.97
2023-11-29T06:06:58.839Z,-1.02
2023-11-29T06:09:32.068Z,-1.05
2023-11-29T06:12:00.798Z,-1.05
2023-11-29T06:14:29.236Z,-1.01
2023-11-29T06:16:58.200Z,-0.96
2023-11-29T06:19:26.701Z,-0.98
2023-11-29T06:21:55.511Z,-1.05
2023-11-29T06:24:24.534Z,-1.05
2023-11-29T06:26:54.683Z,-1.07
2023-11-29T06:29:23.366Z,-1.06
2023-11-29T06:31:51.993Z,-1.06
2023-11-29T06:34:20.546Z,-1.10
2023-11-29T06:36:50.301Z,-1.14
2023-11-29T06:39:20.567Z,-1.05
2023-11-29T06:41:49.655Z,-0.78
2023-11-29T06:44:20.241Z,-0.53
2023-11-29T06:46:50.098Z,-0.40
2023-11-29T06:49:18.905Z,-0.36
2023-11-29T06:51:47.356Z,-0.36
2023-11-29T06:54:15.835Z,-0.34
2023-11-29T06:56:44.285Z,-0.31
2023-11-29T06:59:12.900Z,-0.02
2023-11-29T07:01:42.777Z,0.37
2023-11-29T07:04:11.878Z,0.74
2023-11-29T07:06:40.956Z,0.95
2023-11-29T07:09:09.696Z,1.02
2023-11-29T07:11:38.305Z,0.86
2023-11-29T07:14:07.120Z,0.76
2023-11-29T07:16:35.929Z,0.67
2023-11-29T07:19:26.534Z,0.69
2023-11-29T07:21:55.263Z,0.77
2023-11-29T07:24:23.863Z,0.81
2023-11-29T07:26:52.522Z,0.76
2023-11-29T07:29:21.218Z,0.75
2023-11-29T07:31:49.915Z,0.87
2023-11-29T07:34:18.484Z,0.92
2023-11-29T07:36:53.049Z,0.92
2023-11-29T07:39:22.375Z,1.02
2023-11-29T07:41:50.940Z,1.15
2023-11-29T07:44:23.528Z,1.19
2023-11-29T07:46:52.793Z,1.23
2023-11-29T07:49:21.156Z,1.29
2023-11-29T07:51:51.409Z,1.39
2023-11-29T07:54:20.106Z,1.45
2023-11-29T07:56:48.807Z,1.46
2023-11-29T08:01:47.514Z,1.59
2023-11-29T08:04:16.487Z,1.57
2023-11-29T08:06:45.038Z,1.73
2023-11-29T08:09:15.034Z,1.76
2023-11-29T08:11:46.013Z,1.85
2023-11-29T08:14:14.612Z,1.90
2023-11-29T08:16:43.028Z,2.00
2023-11-29T08:19:11.550Z,2.01
2023-11-29T08:21:40.983Z,2.04
2023-11-29T08:24:09.631Z,2.05
2023-11-29T08:26:39.476Z,1.98
2023-11-29T08:29:08.158Z,2.00
2023-11-29T08:31:36.701Z,2.12
2023-11-29T08:34:05.760Z,2.24
2023-11-29T08:36:34.217Z,2.06
2023-11-29T08:39:03.202Z,1.83
2023-11-29T08:41:31.672Z,1.75
2023-11-29T08:44:01.932Z,1.69
2023-11-29T08:46:31.308Z,1.69
2023-11-29T08:48:59.782Z,1.87
2023-11-29T08:51:30.357Z,2.06
2023-11-29T08:54:00.469Z,2.17
2023-11-29T08:56:29.002Z,2.00
2023-11-29T08:58:57.866Z,1.89
2023-11-29T09:01:27.773Z,1.78
2023-11-29T09:03:56.466Z,1.76
2023-11-29T09:06:25.109Z,1.96
2023-11-29T09:08:54.642Z,2.13
2023-11-29T09:11:23.080Z,2.24
2023-11-29T09:13:51.928Z,2.32
2023-11-29T09:16:20.608Z,2.26
2023-11-29T09:18:51.226Z,2.18
2023-11-29T09:21:20.806Z,2.32
2023-11-29T09:23:50.824Z,2.32
2023-11-29T09:26:19.239Z,2.27
2023-11-29T09:28:47.740Z,2.25
2023-11-29T09:31:16.676Z,2.21
2023-11-29T09:33:45.510Z,2.32
2023-11-29T09:36:17.243Z,2.50
2023-11-29T09:38:45.799Z,2.45
2023-11-29T09:41:15.535Z,2.44
2023-11-29T09:43:44.164Z,2.45
2023-11-29T09:46:12.721Z,2.43
2023-11-29T09:48:41.501Z,2.37
2023-11-29T09:51:09.954Z,2.28
2023-11-29T09:53:39.973Z,2.56
2023-11-29T09:56:09.396Z,2.76
2023-11-29T09:58:37.731Z,2.76
2023-11-29T10:01:06.741Z,2.71
2023-11-29T10:03:36.211Z,2.72
2023-11-29T10:06:05.542Z,3.10
2023-11-29T10:08:34.408Z,3.31
2023-11-29T10:11:04.341Z,3.26
2023-11-29T10:13:32.807Z,3.11
2023-11-29T10:16:01.369Z,3.01
2023-11-29T10:18:30.394Z,3.00
2023-11-29T10:21:06.771Z,3.13
2023-11-29T10:23:40.826Z,3.60
2023-11-29T10:26:10.973Z,3.72
2023-11-29T10:28:42.254Z,3.39
2023-11-29T10:31:11.261Z,3.35
2023-11-29T10:33:42.178Z,3.21
2023-11-29T10:36:12.911Z,3.34
2023-11-29T10:38:45.527Z,3.30
2023-11-29T10:41:19.070Z,3.10
2023-11-29T10:43:50.961Z,3.07
2023-11-29T10:46:24.406Z,3.41
2023-11-29T10:48:59.020Z,3.89
2023-11-29T10:51:28.033Z,4.36
2023-11-29T10:53:57.952Z,4.10
2023-11-29T10:56:28.437Z,4.21
2023-11-29T10:59:05.583Z,4.40
2023-11-29T11:01:35.576Z,4.54
2023-11-29T11:04:05.000Z,4.69
2023-11-29T11:06:37.317Z,4.64
2023-11-29T11:09:08.057Z,4.49
2023-11-29T11:11:44.511Z,4.59
2023-11-29T11:14:17.138Z,4.71
2023-11-29T11:16:55.826Z,4.78
2023-11-29T11:19:30.101Z,4.78
2023-11-29T11:21:58.778Z,4.59
2023-11-29T11:24:38.505Z,4.67
2023-11-29T11:27:10.540Z,4.59
2023-11-29T11:29:39.213Z,4.71
2023-11-29T11:32:08.013Z,4.69
2023-11-29T11:34:39.191Z,4.81
2023-11-29T11:37:08.950Z,4.93
2023-11-29T11:39:38.584Z,4.83
2023-11-29T11:42:07.615Z,4.82
2023-11-29T11:44:38.016Z,5.07
2023-11-29T11:47:07.076Z,5.16
2023-11-29T11:49:36.633Z,4.92
2023-11-29T11:52:06.296Z,4.88
2023-11-29T11:54:34.723Z,4.94
2023-11-29T11:57:03.294Z,4.89
2023-11-29T11:59:31.734Z,4.95
2023-11-29T12:02:01.783Z,5.32
2023-11-29T12:04:30.443Z,5.10
2023-11-29T12:06:59.149Z,5.09
2023-11-29T12:09:29.435Z,5.47
2023-11-29T12:12:09.738Z,5.88
2023-11-29T12:14:39.194Z,6.22
2023-11-29T12:17:09.194Z,6.55
2023-11-29T12:19:37.715Z,6.93
2023-11-29T12:22:07.682Z,7.04
2023-11-29T12:24:47.794Z,7.10
2023-11-29T12:27:18.041Z,7.16
2023-11-29T12:29:47.649Z,7.21
2023-11-29T12:32:18.645Z,7.21
2023-11-29T12:34:47.254Z,7.08
2023-11-29T12:37:17.298Z,6.79
2023-11-29T12:39:46.568Z,6.61
2023-11-29T12:42:15.477Z,6.42
2023-11-29T12:44:44.602Z,6.15
2023-11-29T12:47:14.071Z,5.98
2023-11-29T12:49:45.064Z,5.54
2023-11-29T12:52:13.887Z,5.06
2023-11-29T12:54:42.263Z,4.75
2023-11-29T12:57:11.046Z,4.36
2023-11-29T12:59:40.127Z,4.26
2023-11-29T13:02:09.514Z,4.15
2023-11-29T13:04:38.274Z,3.97
2023-11-29T13:07:08.560Z,3.81
2023-11-29T13:09:36.116Z,3.68
2023-11-29T13:12:04.807Z,3.64
2023-11-29T13:14:39.448Z,3.49
2023-11-29T13:17:08.319Z,3.40
2023-11-29T13:19:37.021Z,3.37
2023-11-29T13:22:06.259Z,3.32
2023-11-29T13:24:36.057Z,3.32
2023-11-29T13:27:07.250Z,3.31
2023-11-29T13:29:37.011Z,3.34
2023-11-29T13:32:05.615Z,3.35
2023-11-29T13:34:34.594Z,3.28
2023-11-29T13:37:03.418Z,3.27
2023-11-29T13:39:32.549Z,3.22
2023-11-29T13:42:03.260Z,3.13
2023-11-29T13:44:31.879Z,3.07
2023-11-29T13:47:00.318Z,3.02
2023-11-29T13:49:28.940Z,2.93
2023-11-29T13:52:04.720Z,2.82
2023-11-29T13:54:42.309Z,2.73
2023-11-29T13:57:12.702Z,2.73
2023-11-29T13:59:41.449Z,2.71
2023-11-29T14:02:17.570Z,2.67
2023-11-29T14:04:49.549Z,2.63
2023-11-29T14:07:19.452Z,2.62
2023-11-29T14:09:47.816Z,2.61
2023-11-29T14:12:19.260Z,2.58
2023-11-29T14:14:48.377Z,2.51
2023-11-29T14:17:16.893Z,2.55
2023-11-29T14:19:45.875Z,2.53
2023-11-29T14:22:14.368Z,2.57
2023-11-29T14:24:43.670Z,2.54
2023-11-29T14:27:12.161Z,2.47
2023-11-29T14:29:42.695Z,2.43
2023-11-29T14:32:11.299Z,2.39
2023-11-29T14:34:39.663Z,2.27
2023-11-29T14:37:08.244Z,2.09
2023-11-29T14:39:37.254Z,1.93
2023-11-29T14:42:07.083Z,1.95
2023-11-29T14:44:36.071Z,1.95
2023-11-29T14:47:07.242Z,1.87
2023-11-29T14:49:36.147Z,1.75
2023-11-29T14:52:04.628Z,1.69
2023-11-29T14:54:33.147Z,1.65
2023-11-29T14:57:02.194Z,1.56
2023-11-29T14:59:31.800Z,1.41
2023-11-29T15:02:01.423Z,1.27
2023-11-29T15:04:31.555Z,1.07
2023-11-29T15:07:00.611Z,0.97
2023-11-29T15:09:29.319Z,0.91
2023-11-29T15:11:58.617Z,0.81
2023-11-29T15:14:27.304Z,0.78
2023-11-29T15:16:55.854Z,0.85
2023-11-29T15:19:24.306Z,0.75
2023-11-29T15:21:58.794Z,0.57
2023-11-29T15:24:27.982Z,0.43
2023-11-29T15:26:59.662Z,0.48
2023-11-29T15:29:31.527Z,0.42
2023-11-29T15:32:02.222Z,0.32
2023-11-29T15:34:30.795Z,0.27
2023-11-29T15:37:01.033Z,0.34
2023-11-29T15:39:29.620Z,0.35
2023-11-29T15:41:59.553Z,0.30
2023-11-29T15:44:28.418Z,0.23
2023-11-29T15:46:56.997Z,0.24
2023-11-29T15:49:25.704Z,0.26
2023-11-29T15:51:54.208Z,0.16
2023-11-29T15:54:24.169Z,0.19
2023-11-29T15:56:52.718Z,0.11
2023-11-29T15:59:21.260Z,0.00
2023-11-29T16:01:49.749Z,-0.09
2023-11-29T16:04:18.521Z,-0.22
2023-11-29T16:06:46.981Z,-0.28
2023-11-29T16:09:15.498Z,-0.27
2023-11-29T16:11:45.515Z,-0.30
2023-11-29T16:14:14.545Z,-0.36
2023-11-29T16:16:43.025Z,-0.42
2023-11-29T16:19:11.822Z,-0.46
2023-11-29T16:21:40.207Z,-0.48
2023-11-29T16:24:09.688Z,-0.51
2023-11-29T16:26:38.791Z,-0.55
2023-11-29T16:29:08.738Z,-0.58
2023-11-29T16:31:37.349Z,-0.57
2023-11-29T16:34:06.287Z,-0.58
2023-11-29T16:36:34.886Z,-0.65
2023-11-29T16:39:03.236Z,-0.72
2023-11-29T16:41:31.758Z,-0.77
2023-11-29T16:44:00.252Z,-0.77
2023-11-29T16:46:32.149Z,-0.78
2023-11-29T16:49:02.226Z,-0.75
2023-11-29T16:51:30.797Z,-0.73
2023-11-29T16:53:59.377Z,-0.70
2023-11-29T16:56:27.946Z,-0.70
2023-11-29T16:58:58.516Z,-0.73
2023-11-29T17:01:27.288Z,-0.69
2023-11-29T17:03:57.616Z,-0.70
2023-11-29T17:06:26.219Z,-0.67
2023-11-29T17:08:55.737Z,-0.64
2023-11-29T17:11:24.215Z,-0.64
2023-11-29T17:13:54.434Z,-0.63
2023-11-29T17:16:23.813Z,-0.65
2023-11-29T17:18:51.220Z,-0.66
2023-11-29T17:21:23.282Z,-0.58
2023-11-29T17:23:51.971Z,-0.47
2023-11-29T17:26:20.650Z,-0.43
2023-11-29T17:28:49.700Z,-0.41
2023-11-29T17:31:18.149Z,-0.32
2023-11-29T17:33:46.768Z,-0.29
2023-11-29T17:36:15.391Z,-0.24
2023-11-29T17:38:46.213Z,-0.19
2023-11-29T17:41:14.745Z,-0.19
2023-11-29T17:43:43.319Z,-0.21
2023-11-29T17:46:12.824Z,-0.15
2023-11-29T17:48:41.365Z,-0.06
2023-11-29T17:51:10.694Z,0.00
2023-11-29T17:53:39.152Z,0.02
2023-11-29T17:56:09.555Z,0.05
2023-11-29T17:58:38.069Z,0.05
2023-11-29T18:01:06.887Z,0.18
2023-11-29T18:03:36.108Z,0.18
2023-11-29T18:06:04.889Z,0.24
2023-11-29T18:08:33.916Z,0.28
2023-11-29T18:11:02.660Z,0.35
2023-11-29T18:13:32.514Z,0.37
2023-11-29T18:16:04.278Z,0.38
2023-11-29T18:18:34.166Z,0.40
2023-11-29T18:21:02.754Z,0.43
2023-11-29T18:23:34.552Z,0.48
2023-11-29T18:26:05.154Z,0.49
2023-11-29T18:28:35.190Z,0.44
2023-11-29T18:31:03.690Z,0.49
2023-11-29T18:33:32.739Z,0.52
2023-11-29T18:36:01.333Z,0.58
2023-11-29T18:38:29.991Z,0.65
2023-11-29T18:40:58.520Z,0.64
2023-11-29T18:43:26.890Z,0.66
2023-11-29T18:45:56.899Z,0.67
2023-11-29T18:48:27.124Z,0.66
2023-11-29T18:50:55.650Z,0.68
2023-11-29T18:53:24.176Z,0.70
2023-11-29T18:55:52.550Z,0.68
2023-11-29T18:58:21.104Z,0.70
2023-11-29T19:00:49.406Z,0.71
2023-11-29T19:03:19.952Z,0.72
2023-11-29T19:05:49.557Z,0.75
2023-11-29T19:08:17.943Z,0.75
2023-11-29T19:10:46.833Z,0.72
2023-11-29T19:13:15.235Z,0.75
2023-11-29T19:15:43.748Z,0.75
2023-11-29T19:18:15.885Z,0.76
2023-11-29T19:20:45.998Z,0.77
2023-11-29T19:23:22.627Z,0.72
2023-11-29T19:25:59.766Z,0.72
2023-11-29T19:28:28.447Z,0.67
2023-11-29T19:30:57.071Z,0.60
2023-11-29T19:33:25.622Z,0.58
2023-11-29T19:35:55.943Z,0.49
2023-11-29T19:38:24.623Z,0.52
2023-11-29T19:40:52.958Z,0.54
2023-11-29T19:43:21.800Z,0.55
2023-11-29T19:45:50.280Z,0.56
2023-11-29T19:48:18.777Z,0.63
2023-11-29T19:50:47.978Z,0.66
2023-11-29T19:53:17.882Z,0.69
2023-11-29T19:55:46.343Z,0.73
2023-11-29T19:58:23.659Z,0.79
2023-11-29T20:00:59.472Z,0.83
2023-11-29T20:03:28.121Z,0.83
2023-11-29T20:05:56.887Z,0.86
2023-11-29T20:08:27.059Z,0.84
2023-11-29T20:10:58.282Z,0.85
2023-11-29T20:13:26.735Z,0.82
2023-11-29T20:15:55.691Z,0.82
2023-11-29T20:18:26.959Z,0.83
2023-11-29T20:21:01.777Z,0.81
2023-11-29T20:23:34.762Z,0.80
2023-11-29T20:26:03.216Z,0.78
2023-11-29T20:28:31.630Z,0.81
2023-11-29T20:31:01.818Z,0.86
2023-11-29T20:33:30.698Z,0.84
2023-11-29T20:35:59.101Z,0.84
2023-11-29T20:38:27.797Z,0.85
2023-11-29T20:40:57.689Z,0.84
2023-11-29T20:43:27.189Z,0.84
2023-11-29T20:45:58.197Z,0.82
2023-11-29T20:48:26.753Z,0.82
2023-11-29T20:50:56.054Z,0.83
2023-11-29T20:53:24.524Z,0.83
2023-11-29T20:55:54.245Z,0.85
2023-11-29T20:58:25.484Z,0.84
2023-11-29T21:00:54.346Z,0.86
2023-11-29T21:03:22.825Z,0.84
2023-11-29T21:05:51.407Z,0.86
2023-11-29T21:08:19.859Z,0.87
2023-11-29T21:10:48.407Z,0.89
2023-11-29T21:13:18.105Z,0.88
2023-11-29T21:15:48.803Z,0.84
2023-11-29T21:18:17.489Z,0.85
2023-11-29T21:20:48.497Z,0.86
2023-11-29T21:23:17.246Z,0.87
2023-11-29T21:25:46.009Z,0.87
2023-11-29T21:28:15.416Z,0.88
2023-11-29T21:30:43.912Z,0.88
2023-11-29T21:33:14.073Z,0.88
2023-11-29T21:35:42.832Z,0.88
2023-11-29T21:38:11.267Z,0.88
2023-11-29T21:40:39.750Z,0.92
2023-11-29T21:43:08.724Z,0.94
2023-11-29T21:45:37.271Z,0.94
2023-11-29T21:48:05.769Z,0.95
2023-11-29T21:50:35.802Z,0.93
2023-11-29T21:53:04.426Z,0.93
2023-11-29T21:55:32.888Z,0.94
2023-11-29T21:58:01.383Z,0.99
2023-11-29T22:00:29.870Z,0.99
2023-11-29T22:02:58.448Z,1.00
2023-11-29T22:05:26.900Z,1.03
2023-11-29T22:07:56.849Z,1.04
2023-11-29T22:10:27.437Z,1.05
2023-11-29T22:12:56.235Z,1.09
2023-11-29T22:15:24.769Z,1.09
2023-11-29T22:17:53.534Z,1.10
2023-11-29T22:20:22.054Z,1.11
2023-11-29T22:22:50.862Z,1.11
2023-11-29T22:25:20.693Z,1.09
2023-11-29T22:27:49.393Z,1.11
2023-11-29T22:30:18.130Z,1.09
2023-11-29T22:32:46.761Z,1.09
2023-11-29T22:35:15.230Z,1.08
2023-11-29T22:37:43.985Z,1.10
2023-11-29T22:40:13.009Z,1.08
2023-11-29T22:42:43.317Z,1.04
2023-11-29T22:45:12.038Z,1.02
2023-11-29T22:47:40.577Z,1.03
2023-11-29T22:50:09.453Z,1.01
2023-11-29T22:52:37.944Z,1.01
2023-11-29T22:55:07.276Z,0.99
2023-11-29T22:57:36.084Z,0.95
2023-11-29T23:00:08.028Z,0.92
2023-11-29T23:02:36.818Z,0.94
2023-11-29T23:05:05.728Z,0.92
2023-11-29T23:07:34.699Z,0.87
2023-11-29T23:10:03.733Z,0.82
2023-11-29T23:12:32.247Z,0.79
2023-11-29T23:15:00.979Z,0.82
2023-11-29T23:17:31.234Z,0.80
2023-11-29T23:20:00.683Z,0.78
2023-11-29T23:22:29.601Z,0.75
2023-11-29T23:24:58.471Z,0.71
2023-11-29T23:27:27.667Z,0.67
2023-11-29T23:29:56.214Z,0.64
2023-11-29T23:32:24.677Z,0.60
2023-11-29T23:34:54.605Z,0.58
2023-11-29T23:37:23.891Z,0.59
2023-11-29T23:39:52.488Z,0.60
2023-11-29T23:42:21.146Z,0.59
2023-11-29T23:44:49.661Z,0.58
2023-11-29T23:47:18.185Z,0.61
2023-11-29T23:49:46.707Z,0.60
2023-11-29T23:52:16.871Z,0.59
2023-11-29T23:54:45.553Z,0.57
2023-11-29T23:57:14.209Z,0.59
2023-11-29T23:59:42.805Z,0.52
